sensor_id;sensor_type;location;lat;lon;timestamp;pressure;altitude;pressure_sealevel;temperature;humidity
11017;BME280;54687;50.800;6.772;2023-07-09T00:00:13;91455.06;;;-144.06;25.85
11017;BME280;54687;50.800;6.772;2023-07-09T00:02:40;91505.81;;;-144.06;25.78
11017;BME280;54687;50.800;6.772;2023-07-09T00:05:11;91554.47;;;-144.06;25.68
11017;BME280;54687;50.800;6.772;2023-07-09T00:07:38;91569.25;;;-144.06;25.81
11017;BME280;54687;50.800;6.772;2023-07-09T00:10:09;91581.94;;;-144.06;25.84
11017;BME280;54687;50.800;6.772;2023-07-09T00:12:39;91571.38;;;-144.06;25.71
11017;BME280;54687;50.800;6.772;2023-07-09T00:15:10;91581.94;;;-144.06;25.67
11017;BME280;54687;50.800;6.772;2023-07-09T00:17:37;91598.88;;;-144.06;25.88
11017;BME280;54687;50.800;6.772;2023-07-09T00:20:06;91636.94;;;-144.06;25.76
11017;BME280;54687;50.800;6.772;2023-07-09T00:22:38;91603.09;;;-144.06;25.77
11017;BME280;54687;50.800;6.772;2023-07-09T00:25:07;91620.03;;;-144.06;25.70
11017;BME280;54687;50.800;6.772;2023-07-09T00:27:34;91607.31;;;-144.06;25.54
11017;BME280;54687;50.800;6.772;2023-07-09T00:30:00;91630.59;;;-144.06;25.69
11017;BME280;54687;50.800;6.772;2023-07-09T00:32:30;91598.88;;;-144.06;25.81
11017;BME280;54687;50.800;6.772;2023-07-09T00:35:00;91607.31;;;-144.06;25.87
11017;BME280;54687;50.800;6.772;2023-07-09T00:37:30;91660.19;;;-144.06;25.89
11017;BME280;54687;50.800;6.772;2023-07-09T00:39:56;91675.00;;;-144.06;26.00
11017;BME280;54687;50.800;6.772;2023-07-09T00:42:23;91683.47;;;-144.06;25.99
11017;BME280;54687;50.800;6.772;2023-07-09T00:44:51;91719.44;;;-144.06;26.05
11017;BME280;54687;50.800;6.772;2023-07-09T00:47:22;91696.16;;;-144.06;26.03
11017;BME280;54687;50.800;6.772;2023-07-09T00:49:59;91685.59;;;-144.06;26.07
11017;BME280;54687;50.800;6.772;2023-07-09T00:52:33;91679.25;;;-144.06;25.81
11017;BME280;54687;50.800;6.772;2023-07-09T00:55:05;91704.63;;;-144.06;25.84
11017;BME280;54687;50.800;6.772;2023-07-09T00:57:34;91732.13;;;-144.06;25.86
11017;BME280;54687;50.800;6.772;2023-07-09T01:00:06;91848.44;;;-144.06;25.91
11017;BME280;54687;50.800;6.772;2023-07-09T01:02:35;91799.78;;;-144.06;25.99
11017;BME280;54687;50.800;6.772;2023-07-09T01:05:04;91804.03;;;-144.06;26.02
11017;BME280;54687;50.800;6.772;2023-07-09T01:07:32;91852.69;;;-144.06;26.15
11017;BME280;54687;50.800;6.772;2023-07-09T01:09:59;91954.19;;;-144.06;26.33
11017;BME280;54687;50.800;6.772;2023-07-09T01:12:26;92034.56;;;-144.06;26.29
11017;BME280;54687;50.800;6.772;2023-07-09T01:14:55;92030.34;;;-144.06;26.27
11017;BME280;54687;50.800;6.772;2023-07-09T01:17:25;92013.44;;;-144.06;26.27
11017;BME280;54687;50.800;6.772;2023-07-09T01:19:54;91996.50;;;-144.06;26.22
11017;BME280;54687;50.800;6.772;2023-07-09T01:22:23;92034.56;;;-144.06;25.87
11017;BME280;54687;50.800;6.772;2023-07-09T01:25:02;91996.50;;;-144.06;25.93
11017;BME280;54687;50.800;6.772;2023-07-09T01:27:31;91983.81;;;-144.06;25.98
11017;BME280;54687;50.800;6.772;2023-07-09T01:30:00;91981.69;;;-144.06;26.05
11017;BME280;54687;50.800;6.772;2023-07-09T01:32:27;92036.69;;;-144.06;25.85
11017;BME280;54687;50.800;6.772;2023-07-09T01:34:57;92030.34;;;-144.06;25.88
11017;BME280;54687;50.800;6.772;2023-07-09T01:37:32;92043.03;;;-144.06;26.23
11017;BME280;54687;50.800;6.772;2023-07-09T01:39:59;92117.06;;;-144.06;26.00
11017;BME280;54687;50.800;6.772;2023-07-09T01:42:27;92106.50;;;-144.06;26.30
11017;BME280;54687;50.800;6.772;2023-07-09T01:44:54;92140.34;;;-144.06;26.17
11017;BME280;54687;50.800;6.772;2023-07-09T01:47:21;92106.50;;;-144.06;26.10
11017;BME280;54687;50.800;6.772;2023-07-09T01:49:49;92153.03;;;-144.06;26.08
11017;BME280;54687;50.800;6.772;2023-07-09T01:52:16;92148.81;;;-144.06;26.20
11017;BME280;54687;50.800;6.772;2023-07-09T01:54:45;92112.84;;;-144.06;26.29
11017;BME280;54687;50.800;6.772;2023-07-09T01:57:17;92140.34;;;-144.06;26.14
11017;BME280;54687;50.800;6.772;2023-07-09T01:59:49;92119.19;;;-144.06;26.22
11017;BME280;54687;50.800;6.772;2023-07-09T02:02:16;92127.66;;;-144.06;26.00
11017;BME280;54687;50.800;6.772;2023-07-09T02:04:46;92108.63;;;-144.06;26.24
11017;BME280;54687;50.800;6.772;2023-07-09T02:07:13;92114.97;;;-144.06;26.17
11017;BME280;54687;50.800;6.772;2023-07-09T02:09:40;92125.53;;;-144.06;26.02
11017;BME280;54687;50.800;6.772;2023-07-09T02:12:09;92121.31;;;-144.06;26.25
11017;BME280;54687;50.800;6.772;2023-07-09T02:14:37;92127.66;;;-144.06;26.10
11017;BME280;54687;50.800;6.772;2023-07-09T02:17:04;92205.91;;;-144.06;26.42
11017;BME280;54687;50.800;6.772;2023-07-09T02:19:31;92199.56;;;-144.06;26.03
11017;BME280;54687;50.800;6.772;2023-07-09T02:21:57;92203.81;;;-144.06;26.16
11017;BME280;54687;50.800;6.772;2023-07-09T02:24:24;92220.72;;;-144.06;26.08
11017;BME280;54687;50.800;6.772;2023-07-09T02:26:53;92197.47;;;-144.06;26.32
11017;BME280;54687;50.800;6.772;2023-07-09T02:29:21;92237.66;;;-144.06;25.98
11017;BME280;54687;50.800;6.772;2023-07-09T02:31:49;92174.19;;;-144.06;26.31
11017;BME280;54687;50.800;6.772;2023-07-09T02:34:16;92271.50;;;-144.06;26.51
11017;BME280;54687;50.800;6.772;2023-07-09T02:36:42;92258.81;;;-144.06;26.00
11017;BME280;54687;50.800;6.772;2023-07-09T02:39:09;92197.47;;;-144.06;26.36
11017;BME280;54687;50.800;6.772;2023-07-09T02:41:36;92252.44;;;-144.06;26.44
11017;BME280;54687;50.800;6.772;2023-07-09T02:44:03;92241.88;;;-144.06;26.01
11017;BME280;54687;50.800;6.772;2023-07-09T02:46:31;92267.25;;;-144.06;25.96
11017;BME280;54687;50.800;6.772;2023-07-09T02:48:58;92277.84;;;-144.06;26.42
11017;BME280;54687;50.800;6.772;2023-07-09T02:51:25;92296.88;;;-144.06;26.09
11017;BME280;54687;50.800;6.772;2023-07-09T02:53:53;92309.56;;;-144.06;26.13
11017;BME280;54687;50.800;6.772;2023-07-09T02:56:20;92296.88;;;-144.06;26.59
11017;BME280;54687;50.800;6.772;2023-07-09T02:58:47;92258.81;;;-144.06;26.25
11017;BME280;54687;50.800;6.772;2023-07-09T03:01:13;92275.72;;;-144.06;26.48
11017;BME280;54687;50.800;6.772;2023-07-09T03:03:41;92248.22;;;-144.06;26.28
11017;BME280;54687;50.800;6.772;2023-07-09T03:06:09;92216.50;;;-144.06;26.20
11017;BME280;54687;50.800;6.772;2023-07-09T03:08:35;92241.88;;;-144.06;26.03
11017;BME280;54687;50.800;6.772;2023-07-09T03:11:09;92248.22;;;-144.06;26.34
11017;BME280;54687;50.800;6.772;2023-07-09T03:13:35;92296.88;;;-144.06;26.40
11017;BME280;54687;50.800;6.772;2023-07-09T03:16:02;92246.09;;;-144.06;26.31
11017;BME280;54687;50.800;6.772;2023-07-09T03:18:28;92296.88;;;-144.06;26.30
11017;BME280;54687;50.800;6.772;2023-07-09T03:20:57;92271.50;;;-144.06;26.18
11017;BME280;54687;50.800;6.772;2023-07-09T03:23:25;92254.56;;;-144.06;26.42
11017;BME280;54687;50.800;6.772;2023-07-09T03:25:52;92271.50;;;-144.06;26.41
11017;BME280;54687;50.800;6.772;2023-07-09T03:28:19;92292.66;;;-144.06;26.20
11017;BME280;54687;50.800;6.772;2023-07-09T03:30:46;92258.81;;;-144.06;26.22
11017;BME280;54687;50.800;6.772;2023-07-09T03:33:14;92305.34;;;-144.06;26.46
11017;BME280;54687;50.800;6.772;2023-07-09T03:35:41;92296.88;;;-144.06;26.07
11017;BME280;54687;50.800;6.772;2023-07-09T03:38:10;92241.88;;;-144.06;26.42
11017;BME280;54687;50.800;6.772;2023-07-09T03:40:37;92284.19;;;-144.06;26.37
11017;BME280;54687;50.800;6.772;2023-07-09T03:43:04;92220.72;;;-144.06;26.40
11017;BME280;54687;50.800;6.772;2023-07-09T03:45:32;92263.03;;;-144.06;26.47
11017;BME280;54687;50.800;6.772;2023-07-09T03:47:59;92241.88;;;-144.06;26.26
11017;BME280;54687;50.800;6.772;2023-07-09T03:50:25;92235.53;;;-144.06;26.30
11017;BME280;54687;50.800;6.772;2023-07-09T03:52:52;92203.81;;;-144.06;26.08
11017;BME280;54687;50.800;6.772;2023-07-09T03:55:20;92142.47;;;-144.06;26.17
11017;BME280;54687;50.800;6.772;2023-07-09T03:57:47;92220.72;;;-144.06;26.44
11017;BME280;54687;50.800;6.772;2023-07-09T04:00:14;92178.41;;;-144.06;26.25
11017;BME280;54687;50.800;6.772;2023-07-09T04:02:41;92157.25;;;-144.06;26.27
11017;BME280;54687;50.800;6.772;2023-07-09T04:05:09;92167.84;;;-144.06;26.42
11017;BME280;54687;50.800;6.772;2023-07-09T04:07:36;92062.06;;;-144.06;26.15
11017;BME280;54687;50.800;6.772;2023-07-09T04:10:05;92055.72;;;-144.06;26.17
11017;BME280;54687;50.800;6.772;2023-07-09T04:12:33;92047.28;;;-144.06;26.05
11017;BME280;54687;50.800;6.772;2023-07-09T04:15:02;92000.75;;;-144.06;25.86
11017;BME280;54687;50.800;6.772;2023-07-09T04:17:29;92032.47;;;-144.06;26.21
11017;BME280;54687;50.800;6.772;2023-07-09T04:19:55;92043.03;;;-144.06;26.05
11017;BME280;54687;50.800;6.772;2023-07-09T04:22:22;92021.88;;;-144.06;26.24
11017;BME280;54687;50.800;6.772;2023-07-09T04:24:49;92009.19;;;-144.06;26.23
11017;BME280;54687;50.800;6.772;2023-07-09T04:27:15;91933.06;;;-144.06;26.03
11017;BME280;54687;50.800;6.772;2023-07-09T04:29:43;91911.91;;;-144.06;26.10
11017;BME280;54687;50.800;6.772;2023-07-09T04:32:13;91907.66;;;-144.06;26.14
11017;BME280;54687;50.800;6.772;2023-07-09T04:34:40;91835.75;;;-144.06;26.08
11017;BME280;54687;50.800;6.772;2023-07-09T04:37:07;91791.34;;;-144.06;26.09
11017;BME280;54687;50.800;6.772;2023-07-09T04:39:35;91793.44;;;-144.06;25.79
11017;BME280;54687;50.800;6.772;2023-07-09T04:42:02;91713.06;;;-144.06;25.84
11017;BME280;54687;50.800;6.772;2023-07-09T04:44:28;91670.78;;;-144.06;25.96
11017;BME280;54687;50.800;6.772;2023-07-09T04:46:56;91594.63;;;-144.06;25.91
11017;BME280;54687;50.800;6.772;2023-07-09T04:49:23;91579.84;;;-144.06;25.70
11017;BME280;54687;50.800;6.772;2023-07-09T04:51:49;91531.19;;;-144.06;25.61
11017;BME280;54687;50.800;6.772;2023-07-09T04:54:16;91395.84;;;-144.06;25.61
11017;BME280;54687;50.800;6.772;2023-07-09T04:56:43;91366.22;;;-144.06;25.56
11017;BME280;54687;50.800;6.772;2023-07-09T04:59:10;91302.78;;;-144.06;25.52
11017;BME280;54687;50.800;6.772;2023-07-09T05:01:36;91213.97;;;-144.06;25.54
11017;BME280;54687;50.800;6.772;2023-07-09T05:04:04;91207.63;;;-144.06;25.37
11017;BME280;54687;50.800;6.772;2023-07-09T05:06:32;91182.25;;;-144.06;25.39
11017;BME280;54687;50.800;6.772;2023-07-09T05:08:59;91093.44;;;-144.06;25.48
11017;BME280;54687;50.800;6.772;2023-07-09T05:11:26;91065.94;;;-144.06;25.41
11017;BME280;54687;50.800;6.772;2023-07-09T05:13:55;91053.25;;;-144.06;25.37
11017;BME280;54687;50.800;6.772;2023-07-09T05:16:21;90949.63;;;-144.06;25.44
11017;BME280;54687;50.800;6.772;2023-07-09T05:18:48;90922.16;;;-144.06;25.24
11017;BME280;54687;50.800;6.772;2023-07-09T05:21:16;90816.41;;;-144.06;25.24
11017;BME280;54687;50.800;6.772;2023-07-09T05:23:42;90782.59;;;-144.06;25.18
11017;BME280;54687;50.800;6.772;2023-07-09T05:26:09;90778.38;;;-144.06;25.01
11017;BME280;54687;50.800;6.772;2023-07-09T05:28:36;90655.72;;;-144.06;25.13
11017;BME280;54687;50.800;6.772;2023-07-09T05:31:03;90520.41;;;-144.06;24.76
11017;BME280;54687;50.800;6.772;2023-07-09T05:33:30;90406.22;;;-144.06;24.68
11017;BME280;54687;50.800;6.772;2023-07-09T05:35:57;90393.56;;;-144.06;24.83
11017;BME280;54687;50.800;6.772;2023-07-09T05:38:25;90205.38;;;-144.06;24.56
11017;BME280;54687;50.800;6.772;2023-07-09T05:40:59;89996.09;;;-144.06;24.48
11017;BME280;54687;50.800;6.772;2023-07-09T05:43:26;89742.44;;;-144.06;24.42
11017;BME280;54687;50.800;6.772;2023-07-09T05:45:53;89429.59;;;-144.06;24.24
11017;BME280;54687;50.800;6.772;2023-07-09T05:48:19;89125.25;;;-144.06;24.14
11017;BME280;54687;50.800;6.772;2023-07-09T05:50:47;88837.84;;;-144.06;23.89
11017;BME280;54687;50.800;6.772;2023-07-09T05:53:14;88732.16;;;-144.06;23.99
11017;BME280;54687;50.800;6.772;2023-07-09T05:55:42;88474.38;;;-144.06;23.81
11017;BME280;54687;50.800;6.772;2023-07-09T05:58:09;88026.44;;;-144.06;23.63
11017;BME280;54687;50.800;6.772;2023-07-09T06:00:35;87625.03;;;-144.06;23.45
11017;BME280;54687;50.800;6.772;2023-07-09T06:03:03;87344.06;;;-144.06;23.18
11017;BME280;54687;50.800;6.772;2023-07-09T06:05:32;87037.78;;;-144.06;23.30
11017;BME280;54687;50.800;6.772;2023-07-09T06:07:59;86492.91;;;-144.06;23.18
11017;BME280;54687;50.800;6.772;2023-07-09T06:10:25;86034.66;;;-144.06;22.64
11017;BME280;54687;50.800;6.772;2023-07-09T06:12:53;85238.69;;;-144.06;22.67
11017;BME280;54687;50.800;6.772;2023-07-09T06:15:20;85538.47;;;-144.06;22.07
11017;BME280;54687;50.800;6.772;2023-07-09T06:17:47;85183.81;;;-144.06;22.05
11017;BME280;54687;50.800;6.772;2023-07-09T06:20:14;83626.22;;;-144.06;22.00
11017;BME280;54687;50.800;6.772;2023-07-09T06:22:41;82752.75;;;-144.06;21.87
11017;BME280;54687;50.800;6.772;2023-07-09T06:25:07;81352.28;;;-144.06;21.86
11017;BME280;54687;50.800;6.772;2023-07-09T06:27:34;79825.94;;;-144.06;21.59
11017;BME280;54687;50.800;6.772;2023-07-09T06:30:03;79551.94;;;-144.06;20.96
11017;BME280;54687;50.800;6.772;2023-07-09T06:32:30;80264.38;;;-144.06;21.12
11017;BME280;54687;50.800;6.772;2023-07-09T06:34:56;79526.66;;;-144.06;21.26
11017;BME280;54687;50.800;6.772;2023-07-09T06:37:23;76503.59;;;-144.06;21.22
11017;BME280;54687;50.800;6.772;2023-07-09T06:39:50;72290.53;;;-144.06;21.00
11017;BME280;54687;50.800;6.772;2023-07-09T06:42:16;69416.78;;;-144.06;20.34
11017;BME280;54687;50.800;6.772;2023-07-09T06:44:43;67706.69;;;-144.06;20.17
11017;BME280;54687;50.800;6.772;2023-07-09T06:47:11;65216.63;;;-144.06;20.05
11017;BME280;54687;50.800;6.772;2023-07-09T06:49:37;62942.31;;;-144.06;20.06
11017;BME280;54687;50.800;6.772;2023-07-09T06:52:05;60652.72;;;-144.06;19.90
11017;BME280;54687;50.800;6.772;2023-07-09T06:54:33;58065.19;;;-144.06;19.81
11017;BME280;54687;50.800;6.772;2023-07-09T06:56:59;54684.47;;;-144.06;19.68
11017;BME280;54687;50.800;6.772;2023-07-09T06:59:26;50423.06;;;-144.06;18.73
11017;BME280;54687;50.800;6.772;2023-07-09T07:01:52;51773.25;;;-144.06;18.75
11017;BME280;54687;50.800;6.772;2023-07-09T07:04:21;48258.88;;;-144.06;19.24
11017;BME280;54687;50.800;6.772;2023-07-09T07:06:48;44251.69;;;-144.06;18.61
11017;BME280;54687;50.800;6.772;2023-07-09T07:09:14;41849.66;;;-144.06;18.70
11017;BME280;54687;50.800;6.772;2023-07-09T07:11:41;43450.81;;;-144.06;18.60
11017;BME280;54687;50.800;6.772;2023-07-09T07:14:07;48258.88;;;-144.06;19.06
11017;BME280;54687;50.800;6.772;2023-07-09T07:16:34;52132.81;;;-144.06;18.90
11017;BME280;54687;50.800;6.772;2023-07-09T07:19:00;52730.81;;;-144.06;19.06
11017;BME280;54687;50.800;6.772;2023-07-09T07:21:28;52954.56;;;-144.06;19.21
11017;BME280;54687;50.800;6.772;2023-07-09T07:23:55;54132.13;;;-144.06;19.08
11017;BME280;54687;50.800;6.772;2023-07-09T07:26:22;54755.59;;;-144.06;19.31
11017;BME280;54687;50.800;6.772;2023-07-09T07:28:48;55228.50;;;-144.06;19.16
11017;BME280;54687;50.800;6.772;2023-07-09T07:31:16;56890.44;;;-144.06;19.50
11017;BME280;54687;50.800;6.772;2023-07-09T07:33:42;58704.03;;;-144.06;19.63
11017;BME280;54687;50.800;6.772;2023-07-09T07:36:09;59460.31;;;-144.06;19.63
11017;BME280;54687;50.800;6.772;2023-07-09T07:38:37;64427.56;;;-144.06;19.67
11017;BME280;54687;50.800;6.772;2023-07-09T07:41:04;66980.06;;;-144.06;19.87
11017;BME280;54687;50.800;6.772;2023-07-09T07:43:31;68983.91;;;-144.06;19.99
11017;BME280;54687;50.800;6.772;2023-07-09T07:45:57;68878.88;;;-144.06;19.92
11017;BME280;54687;50.800;6.772;2023-07-09T07:48:24;71939.34;;;-144.06;20.36
11017;BME280;54687;50.800;6.772;2023-07-09T07:50:51;73497.97;;;-144.06;20.78
11017;BME280;54687;50.800;6.772;2023-07-09T07:53:17;74621.59;;;-144.06;20.58
11017;BME280;54687;50.800;6.772;2023-07-09T07:55:45;76682.59;;;-144.06;20.94
11017;BME280;54687;50.800;6.772;2023-07-09T07:58:13;76838.44;;;-144.06;20.80
11017;BME280;54687;50.800;6.772;2023-07-09T08:00:40;75505.63;;;-144.06;20.72
11017;BME280;54687;50.800;6.772;2023-07-09T08:03:06;77375.47;;;-144.06;21.13
11017;BME280;54687;50.800;6.772;2023-07-09T08:05:33;77099.56;;;-144.06;21.11
11017;BME280;54687;50.800;6.772;2023-07-09T08:07:59;76467.81;;;-144.06;21.20
11017;BME280;54687;50.800;6.772;2023-07-09T08:10:26;76288.84;;;-144.06;20.80
11017;BME280;54687;50.800;6.772;2023-07-09T08:12:54;75351.97;;;-144.06;20.68
11017;BME280;54687;50.800;6.772;2023-07-09T08:15:22;74678.44;;;-144.06;20.98
11017;BME280;54687;50.800;6.772;2023-07-09T08:17:49;74952.03;;;-144.06;20.90
11017;BME280;54687;50.800;6.772;2023-07-09T08:20:16;73617.88;;;-144.06;20.84
11017;BME280;54687;50.800;6.772;2023-07-09T08:22:42;73975.56;;;-144.06;20.96
11017;BME280;54687;50.800;6.772;2023-07-09T08:25:09;73845.13;;;-144.06;20.59
11017;BME280;54687;50.800;6.772;2023-07-09T08:27:35;73030.94;;;-144.06;20.68
11017;BME280;54687;50.800;6.772;2023-07-09T08:30:04;73163.47;;;-144.06;20.48
11017;BME280;54687;50.800;6.772;2023-07-09T08:32:31;74665.81;;;-144.06;20.78
11017;BME280;54687;50.800;6.772;2023-07-09T08:34:58;74804.72;;;-144.06;20.89
11017;BME280;54687;50.800;6.772;2023-07-09T08:37:24;73329.66;;;-144.06;20.78
11017;BME280;54687;50.800;6.772;2023-07-09T08:39:51;75088.84;;;-144.06;20.80
11017;BME280;54687;50.800;6.772;2023-07-09T08:42:29;72843.72;;;-144.06;20.66
11017;BME280;54687;50.800;6.772;2023-07-09T08:45:08;70879.63;;;-144.06;20.48
11017;BME280;54687;50.800;6.772;2023-07-09T08:47:43;69855.97;;;-144.06;20.34
11017;BME280;54687;50.800;6.772;2023-07-09T08:50:15;70957.41;;;-144.06;20.48
11017;BME280;54687;50.800;6.772;2023-07-09T08:52:44;69908.53;;;-144.06;20.24
11017;BME280;54687;50.800;6.772;2023-07-09T08:55:14;71483.03;;;-144.06;20.46
11017;BME280;54687;50.800;6.772;2023-07-09T08:57:44;71535.59;;;-144.06;20.54
11017;BME280;54687;50.800;6.772;2023-07-09T09:00:16;73201.31;;;-144.06;20.31
11017;BME280;54687;50.800;6.772;2023-07-09T09:02:50;72033.97;;;-144.06;20.55
11017;BME280;54687;50.800;6.772;2023-07-09T09:05:20;69660.53;;;-144.06;20.21
11017;BME280;54687;50.800;6.772;2023-07-09T09:07:51;69673.16;;;-144.06;20.17
11017;BME280;54687;50.800;6.772;2023-07-09T09:10:29;71218.13;;;-144.06;20.22
11017;BME280;54687;50.800;6.772;2023-07-09T09:13:05;70270.03;;;-144.06;20.41
11017;BME280;54687;50.800;6.772;2023-07-09T09:15:33;71213.91;;;-144.06;20.41
11017;BME280;54687;50.800;6.772;2023-07-09T09:18:18;68231.81;;;-144.06;20.19
11017;BME280;54687;50.800;6.772;2023-07-09T09:20:47;66522.31;;;-144.06;19.92
11017;BME280;54687;50.800;6.772;2023-07-09T09:23:16;64733.94;;;-144.06;19.82
11017;BME280;54687;50.800;6.772;2023-07-09T09:25:45;63961.78;;;-144.06;19.85
11017;BME280;54687;50.800;6.772;2023-07-09T09:28:15;62426.38;;;-144.06;19.63
11017;BME280;54687;50.800;6.772;2023-07-09T09:30:43;65325.75;;;-144.06;19.22
11017;BME280;54687;50.800;6.772;2023-07-09T09:33:11;66106.63;;;-144.06;19.48
11017;BME280;54687;50.800;6.772;2023-07-09T09:35:39;63726.81;;;-144.06;19.35
11017;BME280;54687;50.800;6.772;2023-07-09T09:38:11;62126.50;;;-144.06;19.58
11017;BME280;54687;50.800;6.772;2023-07-09T09:40:39;64360.44;;;-144.06;19.65
11017;BME280;54687;50.800;6.772;2023-07-09T09:43:12;66133.91;;;-144.06;19.65
11017;BME280;54687;50.800;6.772;2023-07-09T09:45:41;64159.00;;;-144.06;19.63
11017;BME280;54687;50.800;6.772;2023-07-09T09:48:17;61220.78;;;-144.06;19.26
11017;BME280;54687;50.800;6.772;2023-07-09T09:50:45;61019.53;;;-144.06;19.20
11017;BME280;54687;50.800;6.772;2023-07-09T09:53:18;60468.28;;;-144.06;19.16
11017;BME280;54687;50.800;6.772;2023-07-09T09:55:45;63227.56;;;-144.06;18.72
11017;BME280;54687;50.800;6.772;2023-07-09T09:58:14;62231.34;;;-144.06;18.99
11017;BME280;54687;50.800;6.772;2023-07-09T10:00:47;61394.78;;;-144.06;18.35
11017;BME280;54687;50.800;6.772;2023-07-09T10:03:15;59726.44;;;-144.06;18.74
11017;BME280;54687;50.800;6.772;2023-07-09T10:05:44;59009.88;;;-144.06;18.56
11017;BME280;54687;50.800;6.772;2023-07-09T10:08:22;59977.91;;;-144.06;18.36
11017;BME280;54687;50.800;6.772;2023-07-09T10:10:52;60176.97;;;-144.06;18.36
11017;BME280;54687;50.800;6.772;2023-07-09T10:13:28;59785.09;;;-144.06;18.63
11017;BME280;54687;50.800;6.772;2023-07-09T10:16:02;58549.03;;;-144.06;18.51
11017;BME280;54687;50.800;6.772;2023-07-09T10:18:41;58528.06;;;-144.06;18.46
11017;BME280;54687;50.800;6.772;2023-07-09T10:21:15;58603.47;;;-144.06;18.16
11017;BME280;54687;50.800;6.772;2023-07-09T10:23:50;58360.50;;;-144.06;18.17
11017;BME280;54687;50.800;6.772;2023-07-09T10:26:24;58894.66;;;-144.06;18.42
11017;BME280;54687;50.800;6.772;2023-07-09T10:29:00;56938.59;;;-144.06;18.45
11017;BME280;54687;50.800;6.772;2023-07-09T10:31:38;54169.78;;;-144.06;18.39
11017;BME280;54687;50.800;6.772;2023-07-09T10:34:18;52385.81;;;-144.06;18.38
11017;BME280;54687;50.800;6.772;2023-07-09T10:37:12;51200.50;;;-144.06;17.93
11017;BME280;54687;50.800;6.772;2023-07-09T10:39:42;50665.47;;;-144.06;18.37
11017;BME280;54687;50.800;6.772;2023-07-09T10:42:17;49328.25;;;-144.06;18.01
11017;BME280;54687;50.800;6.772;2023-07-09T10:44:53;47189.81;;;-144.06;18.20
11017;BME280;54687;50.800;6.772;2023-07-09T10:47:27;47991.56;;;-144.06;17.68
11017;BME280;54687;50.800;6.772;2023-07-09T10:49:57;48793.53;;;-144.06;17.59
11017;BME280;54687;50.800;6.772;2023-07-09T10:52:27;51852.69;;;-144.06;17.89
11017;BME280;54687;50.800;6.772;2023-07-09T10:54:59;50932.97;;;-144.06;17.86
11017;BME280;54687;50.800;6.772;2023-07-09T10:57:30;49896.50;;;-144.06;17.80
11017;BME280;54687;50.800;6.772;2023-07-09T11:00:00;49863.06;;;-144.06;17.92
11017;BME280;54687;50.800;6.772;2023-07-09T11:02:30;49060.88;;;-144.06;17.62
11017;BME280;54687;50.800;6.772;2023-07-09T11:05:00;49060.88;;;-144.06;17.76
11017;BME280;54687;50.800;6.772;2023-07-09T11:07:30;47724.31;;;-144.06;18.07
11017;BME280;54687;50.800;6.772;2023-07-09T11:09:58;48793.53;;;-144.06;17.77
11017;BME280;54687;50.800;6.772;2023-07-09T11:12:31;47189.81;;;-144.06;17.69
11017;BME280;54687;50.800;6.772;2023-07-09T11:15:02;47189.81;;;-144.06;18.02
11017;BME280;54687;50.800;6.772;2023-07-09T11:17:30;46388.25;;;-144.06;17.70
11017;BME280;54687;50.800;6.772;2023-07-09T11:20:06;44518.69;;;-144.06;17.54
11017;BME280;54687;50.800;6.772;2023-07-09T11:22:38;44251.69;;;-144.06;17.79
11017;BME280;54687;50.800;6.772;2023-07-09T11:25:08;42650.13;;;-144.06;17.45
11017;BME280;54687;50.800;6.772;2023-07-09T11:27:46;41049.34;;;-144.06;17.46
11017;BME280;54687;50.800;6.772;2023-07-09T11:30:24;41849.66;;;-144.06;17.40
11017;BME280;54687;50.800;6.772;2023-07-09T11:32:57;43450.81;;;-144.06;17.71
11017;BME280;54687;50.800;6.772;2023-07-09T11:35:26;44785.69;;;-144.06;17.42
11017;BME280;54687;50.800;6.772;2023-07-09T11:37:54;45586.88;;;-144.06;17.74
11017;BME280;54687;50.800;6.772;2023-07-09T11:40:22;44251.69;;;-144.06;17.83
11017;BME280;54687;50.800;6.772;2023-07-09T11:42:52;50740.69;;;-144.06;17.73
11017;BME280;54687;50.800;6.772;2023-07-09T11:45:22;49595.66;;;-144.06;17.73
11017;BME280;54687;50.800;6.772;2023-07-09T11:50:23;46388.25;;;-144.06;18.02
11017;BME280;54687;50.800;6.772;2023-07-09T11:52:55;43984.69;;;-144.06;17.47
11017;BME280;54687;50.800;6.772;2023-07-09T11:55:27;42116.47;;;-144.06;17.58
11017;BME280;54687;50.800;6.772;2023-07-09T11:57:55;41316.09;;;-144.06;17.55
11017;BME280;54687;50.800;6.772;2023-07-09T12:00:23;39982.59;;;-144.06;17.29
11017;BME280;54687;50.800;6.772;2023-07-09T12:02:50;38649.63;;;-144.06;17.55
11017;BME280;54687;50.800;6.772;2023-07-09T12:05:21;38649.63;;;-144.06;17.30
11017;BME280;54687;50.800;6.772;2023-07-09T12:07:49;37050.75;;;-144.06;17.39
11017;BME280;54687;50.800;6.772;2023-07-09T12:10:20;37050.75;;;-144.06;17.22
11017;BME280;54687;50.800;6.772;2023-07-09T12:12:47;36251.59;;;-144.06;17.22
11017;BME280;54687;50.800;6.772;2023-07-09T12:15:18;35452.63;;;-144.06;17.36
11017;BME280;54687;50.800;6.772;2023-07-09T12:17:56;34920.09;;;-144.06;17.15
11017;BME280;54687;50.800;6.772;2023-07-09T12:20:24;36784.34;;;-144.06;16.93
11017;BME280;54687;50.800;6.772;2023-07-09T12:22:51;35718.94;;;-144.06;17.16
11017;BME280;54687;50.800;6.772;2023-07-09T12:25:22;32524.72;;;-144.06;17.25
11017;BME280;54687;50.800;6.772;2023-07-09T12:27:49;29599.41;;;-144.06;16.81
11017;BME280;54687;50.800;6.772;2023-07-09T12:30:17;29865.22;;;-144.06;17.00
11017;BME280;54687;50.800;6.772;2023-07-09T12:32:44;29599.41;;;-144.06;16.97
11017;BME280;54687;50.800;6.772;2023-07-09T12:35:13;33855.28;;;-144.06;17.08
11017;BME280;54687;50.800;6.772;2023-07-09T12:37:41;34653.84;;;-144.06;16.96
11017;BME280;54687;50.800;6.772;2023-07-09T12:40:14;32524.72;;;-144.06;16.84
11017;BME280;54687;50.800;6.772;2023-07-09T12:42:43;34121.44;;;-144.06;16.88
11017;BME280;54687;50.800;6.772;2023-07-09T12:45:15;32790.81;;;-144.06;17.01
11017;BME280;54687;50.800;6.772;2023-07-09T12:47:43;35452.63;;;-144.06;16.73
11017;BME280;54687;50.800;6.772;2023-07-09T12:50:19;32258.69;;;-144.06;16.96